createdAt,value
2022-08-22T00:04:34.578Z,1010.42
2022-08-22T00:09:34.100Z,1010.44
2022-08-22T00:14:34.909Z,1010.38
2022-08-22T00:19:35.556Z,1010.32
2022-08-22T00:24:36.429Z,1010.27
2022-08-22T00:29:37.078Z,1010.25
2022-08-22T00:34:37.787Z,1010.25
2022-08-22T00:39:38.499Z,1010.31
2022-08-22T00:44:39.225Z,1010.39
2022-08-22T00:49:39.974Z,1010.43
2022-08-22T00:54:40.745Z,1010.38
2022-08-22T00:59:41.533Z,1010.38
2022-08-22T01:04:42.303Z,1010.39
2022-08-22T01:09:42.998Z,1010.39
2022-08-22T01:14:43.755Z,1010.45
2022-08-22T01:19:44.480Z,1010.52
2022-08-22T01:24:45.172Z,1010.59
2022-08-22T01:29:45.815Z,1010.61
2022-08-22T01:34:46.259Z,1010.62
2022-08-22T01:39:47.033Z,1010.68
2022-08-22T01:44:47.832Z,1010.72
2022-08-22T01:49:48.519Z,1010.71
2022-08-22T01:54:49.265Z,1010.69
2022-08-22T01:59:49.962Z,1010.69
2022-08-22T02:04:50.708Z,1010.65
2022-08-22T02:09:51.463Z,1010.61
2022-08-22T02:14:52.184Z,1010.59
2022-08-22T02:19:52.932Z,1010.58
2022-08-22T02:24:53.705Z,1010.60
2022-08-22T02:29:54.500Z,1010.60
2022-08-22T02:34:55.236Z,1010.58
2022-08-22T02:39:56.027Z,1010.65
2022-08-22T02:44:56.745Z,1010.63
2022-08-22T02:49:57.382Z,1010.62
2022-08-22T02:54:58.138Z,1010.59
2022-08-22T02:59:58.798Z,1010.58
2022-08-22T03:04:59.566Z,1010.60
2022-08-22T03:10:00.326Z,1010.58
2022-08-22T03:15:01.031Z,1010.59
2022-08-22T03:20:01.805Z,1010.57
2022-08-22T03:25:02.566Z,1010.50
2022-08-22T03:30:03.226Z,1010.44
2022-08-22T03:35:03.938Z,1010.45
2022-08-22T03:40:04.751Z,1010.45
2022-08-22T03:45:06.919Z,1010.45
2022-08-22T03:50:06.313Z,1010.51
2022-08-22T03:55:07.009Z,1010.52
2022-08-22T04:00:07.655Z,1010.55
2022-08-22T04:05:08.379Z,1010.62
2022-08-22T04:10:08.806Z,1010.65
2022-08-22T04:15:09.451Z,1010.66
2022-08-22T04:20:10.171Z,1010.65
2022-08-22T04:25:10.825Z,1010.71
2022-08-22T04:30:11.524Z,1010.81
2022-08-22T04:35:12.217Z,1010.82
2022-08-22T04:40:12.875Z,1010.88
2022-08-22T04:45:13.588Z,1010.89
2022-08-22T04:50:14.268Z,1010.94
2022-08-22T04:55:14.972Z,1010.95
2022-08-22T05:00:15.677Z,1011.00
2022-08-22T05:05:16.330Z,1011.08
2022-08-22T05:10:17.295Z,1011.14
2022-08-22T05:15:18.985Z,1011.19
2022-08-22T05:26:08.441Z,1011.20
2022-08-22T05:31:09.094Z,1011.22
2022-08-22T05:36:09.934Z,1011.24
2022-08-22T05:41:10.587Z,1011.27
2022-08-22T05:46:11.268Z,1011.28
2022-08-22T05:51:12.081Z,1011.26
2022-08-22T05:56:12.879Z,1011.30
2022-08-22T06:01:13.577Z,1011.34
2022-08-22T06:06:14.668Z,1011.38
2022-08-22T06:11:14.997Z,1011.45
2022-08-22T06:16:15.280Z,1011.49
2022-08-22T06:21:16.099Z,1011.51
2022-08-22T06:26:21.150Z,1011.53
2022-08-22T06:31:17.664Z,1011.55
2022-08-22T06:36:20.420Z,1011.54
2022-08-22T06:41:18.946Z,1011.56
2022-08-22T06:46:19.606Z,1011.58
2022-08-22T06:51:20.448Z,1011.62
2022-08-22T06:56:20.747Z,1011.63
2022-08-22T07:01:21.528Z,1011.67
2022-08-22T07:06:22.199Z,1011.70
2022-08-22T07:11:22.938Z,1011.72
2022-08-22T07:16:23.549Z,1011.73
2022-08-22T07:21:24.257Z,1011.76
2022-08-22T07:26:24.910Z,1011.81
2022-08-22T07:31:25.529Z,1011.84
2022-08-22T07:36:31.046Z,1011.87
2022-08-22T07:41:27.730Z,1011.84
2022-08-22T07:46:27.389Z,1011.87
2022-08-22T07:51:28.027Z,1011.87
2022-08-22T07:56:28.814Z,1011.88
2022-08-22T08:01:29.627Z,1011.84
2022-08-22T08:06:30.454Z,1011.85
2022-08-22T08:11:31.227Z,1011.88
2022-08-22T08:16:31.910Z,1011.88
2022-08-22T08:21:32.684Z,1011.91
2022-08-22T08:26:33.475Z,1011.87
2022-08-22T08:31:34.232Z,1011.88
2022-08-22T08:36:35.031Z,1011.87
2022-08-22T08:41:35.652Z,1011.88
2022-08-22T08:46:36.491Z,1011.85
2022-08-22T08:51:37.335Z,1011.81
2022-08-22T08:56:38.049Z,1011.78
2022-08-22T09:01:38.966Z,1011.76
2022-08-22T09:06:42.377Z,1011.77
2022-08-22T09:11:40.380Z,1011.78
2022-08-22T09:16:46.268Z,1011.82
2022-08-22T09:21:42.736Z,1011.83
2022-08-22T09:26:42.500Z,1011.84
2022-08-22T09:31:51.546Z,1011.87
2022-08-22T09:36:44.737Z,1011.90
2022-08-22T09:41:44.383Z,1011.93
2022-08-22T09:46:45.183Z,1011.93
2022-08-22T09:51:45.792Z,1011.92
2022-08-22T09:56:46.557Z,1011.92
2022-08-22T10:01:47.231Z,1011.93
2022-08-22T10:06:47.892Z,1011.91
2022-08-22T10:11:48.405Z,1011.93
2022-08-22T10:16:49.122Z,1011.93
2022-08-22T10:21:49.800Z,1011.96
2022-08-22T10:26:50.433Z,1011.97
2022-08-22T10:31:59.110Z,1011.94
2022-08-22T10:36:52.680Z,1011.91
2022-08-22T10:41:52.311Z,1011.97
2022-08-22T10:46:53.020Z,1011.92
2022-08-22T10:51:53.717Z,1011.89
2022-08-22T10:56:54.548Z,1011.88
2022-08-22T11:01:55.356Z,1011.85
2022-08-22T11:06:56.130Z,1011.86
2022-08-22T11:11:56.982Z,1011.86
2022-08-22T11:16:57.763Z,1011.85
2022-08-22T11:22:05.611Z,1011.84
2022-08-22T11:26:59.255Z,1011.84
2022-08-22T11:32:00.394Z,1011.83
2022-08-22T11:37:01.505Z,1011.77
2022-08-22T11:42:01.305Z,1011.78
2022-08-22T11:47:01.784Z,1011.76
2022-08-22T11:52:02.431Z,1011.72
2022-08-22T11:57:03.083Z,1011.76
2022-08-22T12:02:04.212Z,1011.70
2022-08-22T12:07:04.727Z,1011.70
2022-08-22T12:12:05.420Z,1011.62
2022-08-22T12:17:06.688Z,1011.67
2022-08-22T12:22:06.918Z,1011.68
2022-08-22T12:27:08.257Z,1011.64
2022-08-22T12:32:10.122Z,1011.60
2022-08-22T12:37:08.924Z,1011.53
2022-08-22T12:42:09.572Z,1011.50
2022-08-22T12:47:10.401Z,1011.45
2022-08-22T12:52:11.073Z,1011.44
2022-08-22T12:57:24.189Z,1011.40
2022-08-22T13:02:14.215Z,1011.35
2022-08-22T13:07:12.807Z,1011.31
2022-08-22T13:12:13.462Z,1011.31
2022-08-22T13:17:24.475Z,1011.30
2022-08-22T13:22:15.535Z,1011.25
2022-08-22T13:27:15.181Z,1011.28
2022-08-22T13:32:15.847Z,1011.28
2022-08-22T13:37:16.528Z,1011.31
2022-08-22T13:42:27.675Z,1011.38
2022-08-22T13:47:18.787Z,1011.33
2022-08-22T13:52:29.054Z,1011.34
2022-08-22T13:57:20.084Z,1011.31
2022-08-22T14:02:20.083Z,1011.32
2022-08-22T14:07:23.793Z,1011.30
2022-08-22T14:12:21.205Z,1011.31
2022-08-22T14:17:22.156Z,1011.28
2022-08-22T14:22:22.862Z,1011.23
2022-08-22T14:27:24.380Z,1011.23
2022-08-22T14:32:26.774Z,1011.19
2022-08-22T14:37:24.761Z,1011.18
2022-08-22T14:42:25.466Z,1011.16
2022-08-22T14:47:54.497Z,1011.18
2022-08-22T14:52:29.380Z,1011.15
2022-08-22T14:57:27.819Z,1011.19
2022-08-22T15:02:28.796Z,1011.12
2022-08-22T15:07:29.579Z,1011.11
2022-08-22T15:12:30.284Z,1011.10
2022-08-22T15:17:31.084Z,1011.10
2022-08-22T15:22:31.933Z,1011.11
2022-08-22T15:27:32.200Z,1011.14
2022-08-22T15:32:33.020Z,1011.17
2022-08-22T15:37:33.759Z,1011.18
2022-08-22T15:42:34.248Z,1011.14
2022-08-22T15:47:36.241Z,1011.17
2022-08-22T15:52:35.688Z,1011.14
2022-08-22T15:57:36.659Z,1011.10
2022-08-22T16:02:37.029Z,1011.16
2022-08-22T16:07:37.873Z,1011.18
2022-08-22T16:12:38.523Z,1011.17
2022-08-22T16:17:40.060Z,1011.18
2022-08-22T16:22:45.664Z,1011.14
2022-08-22T16:27:41.495Z,1011.20
2022-08-22T16:32:41.129Z,1011.25
2022-08-22T16:37:41.792Z,1011.21
2022-08-22T16:42:42.486Z,1011.19
2022-08-22T16:47:43.223Z,1011.19
2022-08-22T16:52:45.872Z,1011.21
2022-08-22T16:57:59.272Z,1011.22
2022-08-22T17:02:46.019Z,1011.26
2022-08-22T17:07:45.698Z,1011.30
2022-08-22T17:12:46.383Z,1011.28
2022-08-22T17:17:47.084Z,1011.33
2022-08-22T17:22:47.756Z,1011.36
2022-08-22T17:27:48.476Z,1011.35
2022-08-22T17:32:58.986Z,1011.32
2022-08-22T17:37:50.731Z,1011.32
2022-08-22T17:42:57.367Z,1011.37
2022-08-22T17:47:50.990Z,1011.43
2022-08-22T17:52:51.738Z,1011.55
2022-08-22T17:57:52.333Z,1011.62
2022-08-22T18:02:53.026Z,1011.65
2022-08-22T18:07:53.681Z,1011.71
2022-08-22T18:12:54.387Z,1011.78
2022-08-22T18:17:55.114Z,1011.83
2022-08-22T18:22:55.807Z,1011.89
2022-08-22T18:27:56.439Z,1011.96
2022-08-22T18:32:57.164Z,1011.98
2022-08-22T18:37:58.096Z,1012.02
2022-08-22T18:42:58.336Z,1012.02
2022-08-22T18:47:59.150Z,1012.01
2022-08-22T18:53:00.354Z,1012.00
2022-08-22T18:58:00.836Z,1011.95
2022-08-22T19:03:01.756Z,1011.95
2022-08-22T19:08:02.145Z,1011.94
2022-08-22T19:13:02.911Z,1011.96
2022-08-22T19:18:03.904Z,1011.99
2022-08-22T19:23:04.177Z,1012.01
2022-08-22T19:28:05.007Z,1012.05
2022-08-22T19:33:05.685Z,1012.08
2022-08-22T19:38:06.409Z,1012.11
2022-08-22T19:43:07.086Z,1012.12
2022-08-22T19:48:13.098Z,1012.13
2022-08-22T19:53:09.576Z,1012.22
2022-08-22T19:58:09.421Z,1012.26
2022-08-22T20:03:10.242Z,1012.24
2022-08-22T20:08:11.101Z,1012.16
2022-08-22T20:13:11.935Z,1012.12
2022-08-22T20:18:47.277Z,1012.16
2022-08-22T20:23:14.572Z,1012.15
2022-08-22T20:28:14.079Z,1012.15
2022-08-22T20:33:15.068Z,1012.19
2022-08-22T20:38:15.435Z,1012.21
2022-08-22T20:43:15.933Z,1012.18
2022-08-22T20:48:16.304Z,1012.18
2022-08-22T20:53:17.193Z,1012.18
2022-08-22T20:58:17.999Z,1012.19
2022-08-22T21:03:18.873Z,1012.21
2022-08-22T21:08:19.753Z,1012.25
2022-08-22T21:13:20.571Z,1012.25
2022-08-22T21:18:21.439Z,1012.24
2022-08-22T21:23:22.258Z,1012.24
2022-08-22T21:28:23.591Z,1012.21
2022-08-22T21:33:24.198Z,1012.16
2022-08-22T21:38:24.594Z,1012.17
2022-08-22T21:43:25.307Z,1012.22
2022-08-22T21:48:26.120Z,1012.28
2022-08-22T21:53:26.874Z,1012.37
2022-08-22T21:58:36.919Z,1012.35
2022-08-22T22:03:29.185Z,1012.35
2022-08-22T22:08:29.248Z,1012.28
2022-08-22T22:13:29.655Z,1012.23
2022-08-22T22:18:30.380Z,1012.27
2022-08-22T22:23:31.178Z,1012.33
2022-08-22T22:28:31.894Z,1012.33
2022-08-22T22:33:32.630Z,1012.31
2022-08-22T22:38:33.343Z,1012.39
2022-08-22T22:43:34.035Z,1012.40
2022-08-22T22:48:34.782Z,1012.35
2022-08-22T22:53:40.189Z,1012.27
2022-08-22T22:58:37.078Z,1012.24
2022-08-22T23:03:36.601Z,1012.24
2022-08-22T23:08:37.279Z,1012.17
2022-08-22T23:13:39.755Z,1012.15
2022-08-22T23:18:38.454Z,1012.14
2022-08-22T23:23:39.146Z,1012.12
2022-08-22T23:28:39.895Z,1012.13
2022-08-22T23:33:40.599Z,1012.10
2022-08-22T23:38:41.318Z,1012.10
2022-08-22T23:43:50.467Z,1012.11
2022-08-22T23:48:43.770Z,1012.14
2022-08-22T23:53:46.287Z,1012.08
2022-08-22T23:58:53.279Z,1012.03
